Time;durP1;ratioP1;P1;durP2;ratioP2;P2;SDS_P1;SDS_P2;PMS_P1;PMS_P2;Temp;Humidity;BMP_temperature;BMP_pressure;BME280_temperature;BME280_humidity;BME280_pressure;Samples;Min_cycle;Max_cycle;Signal;HPM_P1;HPM_P2
2024/03/30 00:00:52;;;;;;;3.00;2.50;;;;;;;6.37;71.84;99292.61;107232;1259;71490;-37
2024/03/30 00:03:19;;;;;;;3.70;2.60;;;;;;;6.34;72.04;99288.73;107207;1256;60403;-37
2024/03/30 00:05:47;;;;;;;4.20;2.60;;;;;;;6.33;72.55;99296.63;107226;1256;60328;-37
2024/03/30 00:08:14;;;;;;;3.80;2.70;;;;;;;6.31;72.85;99294.73;107176;1256;72620;-37
2024/03/30 00:10:41;;;;;;;4.30;2.90;;;;;;;6.29;73.10;99303.79;107257;1256;65720;-37
2024/03/30 00:13:09;;;;;;;4.50;2.80;;;;;;;6.24;73.18;99305.26;107230;1257;71810;-37
2024/03/30 00:15:37;;;;;;;6.00;3.30;;;;;;;6.28;73.48;99308.16;107219;1261;60914;-37
2024/03/30 00:18:04;;;;;;;7.40;2.90;;;;;;;6.36;73.46;99308.11;107215;1261;60336;-37
2024/03/30 00:20:32;;;;;;;4.00;2.90;;;;;;;6.37;73.60;99307.75;107265;1256;73868;-37
2024/03/30 00:22:59;;;;;;;6.80;3.10;;;;;;;6.36;73.77;99303.96;107250;1256;67685;-37
2024/03/30 00:25:27;;;;;;;6.30;3.10;;;;;;;6.38;73.55;99300.73;107218;1256;72740;-37
2024/03/30 00:27:54;;;;;;;6.10;3.60;;;;;;;6.38;73.44;99298.03;107263;1256;59700;-37
2024/03/30 00:30:23;;;;;;;5.80;3.30;;;;;;;6.36;73.39;99306.48;107280;1260;60377;-37
2024/03/30 00:32:51;;;;;;;5.80;3.60;;;;;;;6.33;73.65;99307.86;107235;1256;73883;-38
2024/03/30 00:35:18;;;;;;;4.90;3.10;;;;;;;6.31;73.81;99316.87;107217;1257;67569;-37
2024/03/30 00:37:47;;;;;;;3.40;2.90;;;;;;;6.36;73.47;99319.80;107281;1256;71373;-37
2024/03/30 00:40:15;;;;;;;5.60;3.20;;;;;;;6.41;73.27;99318.74;107245;1256;60375;-37
2024/03/30 00:42:42;;;;;;;4.60;3.30;;;;;;;6.40;73.25;99324.34;107243;1256;60360;-37
2024/03/30 00:45:23;;;;;;;5.70;3.70;;;;;;;6.38;73.55;99326.83;107258;1256;74328;-37
2024/03/30 00:47:50;;;;;;;6.90;4.10;;;;;;;6.37;73.95;99330.30;107263;1256;66319;-37
2024/03/30 00:50:18;;;;;;;5.40;3.40;;;;;;;6.37;74.16;99331.45;107236;1256;72677;-37
2024/03/30 00:52:46;;;;;;;5.60;3.50;;;;;;;6.37;73.96;99327.30;105693;1259;1003671;-37
2024/03/30 00:55:13;;;;;;;5.60;3.80;;;;;;;6.34;73.95;99322.60;107082;1256;61211;-37
2024/03/30 00:57:44;;;;;;;5.50;3.30;;;;;;;6.33;73.77;99319.77;107259;1258;74618;-37
2024/03/30 01:00:14;;;;;;;4.90;3.50;;;;;;;6.36;73.33;99315.05;107329;1260;67685;-37
2024/03/30 01:02:42;;;;;;;;;;;;;;;6.41;73.28;99312.84;107298;1257;72717;-37
2024/03/30 01:05:09;;;;;;;4.10;3.10;;;;;;;6.39;73.37;99313.30;107292;1257;59749;-37
2024/03/30 01:07:37;;;;;;;4.50;3.10;;;;;;;6.35;73.69;99312.30;107270;1258;61167;-37
2024/03/30 01:10:07;;;;;;;6.40;3.80;;;;;;;6.32;73.72;99310.81;107299;1255;74699;-37
2024/03/30 01:12:35;;;;;;;5.30;3.50;;;;;;;6.31;73.94;99308.00;107341;1257;66606;-37
2024/03/30 01:15:03;;;;;;;5.50;3.30;;;;;;;6.29;73.71;99314.35;107386;1257;72840;-37
2024/03/30 01:17:34;;;;;;;5.50;3.10;;;;;;;6.27;73.77;99312.17;107354;1257;60939;-37
2024/03/30 01:20:05;;;;;;;6.50;3.50;;;;;;;6.29;73.81;99311.26;107311;1255;61160;-37
2024/03/30 01:22:33;;;;;;;5.30;3.50;;;;;;;6.34;73.94;99312.80;107343;1258;74661;-37
2024/03/30 01:25:02;;;;;;;4.50;3.40;;;;;;;6.35;74.20;99318.16;107427;1257;66461;-37
2024/03/30 01:27:30;;;;;;;6.20;3.60;;;;;;;6.35;73.96;99321.98;107351;1258;73081;-37
2024/03/30 01:30:05;;;;;;;6.20;3.70;;;;;;;6.35;73.71;99317.15;107252;1262;61469;-37
2024/03/30 01:32:33;;;;;;;4.30;3.10;;;;;;;6.35;73.78;99317.16;107375;1254;60408;-37
2024/03/30 01:35:00;;;;;;;5.30;3.60;;;;;;;6.32;73.87;99307.96;107333;1254;74605;-37
2024/03/30 01:37:28;;;;;;;7.80;3.50;;;;;;;6.29;74.13;99315.13;107290;1258;67655;-37
2024/03/30 01:39:58;;;;;;;7.10;3.70;;;;;;;6.35;73.86;99310.31;107307;1257;71412;-37
2024/03/30 01:42:29;;;;;;;8.50;3.70;;;;;;;6.42;73.71;99307.96;107276;1254;61336;-37
2024/03/30 01:44:57;;;;;;;5.70;3.40;;;;;;;6.43;73.55;99307.38;107346;1255;61126;-37
2024/03/30 01:47:26;;;;;;;5.10;3.60;;;;;;;6.42;73.50;99307.96;107271;1254;74675;-37
2024/03/30 01:49:55;;;;;;;5.90;3.50;;;;;;;6.39;73.57;99308.14;107318;1255;67679;-37
2024/03/30 01:52:22;;;;;;;5.50;3.80;;;;;;;6.35;73.77;99305.23;107270;1260;72689;-37
2024/03/30 01:54:50;;;;;;;4.70;3.50;;;;;;;6.31;73.61;99311.80;107236;1257;59153;-37
2024/03/30 01:57:17;;;;;;;7.10;4.20;;;;;;;6.28;73.44;99313.23;107294;1255;61224;-37
2024/03/30 01:59:44;;;;;;;5.70;3.70;;;;;;;6.24;73.77;99310.99;107223;1256;74620;-37
2024/03/30 02:02:12;;;;;;;6.00;3.80;;;;;;;6.26;73.94;99307.23;107317;1255;66580;-37
2024/03/30 02:04:39;;;;;;;6.90;3.50;;;;;;;6.31;74.01;99308.01;107285;1260;72747;-37
2024/03/30 02:07:07;;;;;;;6.50;4.20;;;;;;;6.31;74.18;99308.70;107307;1257;60895;-37
2024/03/30 02:09:35;;;;;;;5.60;4.40;;;;;;;6.24;74.78;99298.00;107244;1256;60386;-37
2024/03/30 02:12:03;;;;;;;6.20;4.40;;;;;;;6.31;75.20;99311.39;107280;1257;74610;-37
2024/03/30 02:14:30;;;;;;;7.30;4.40;;;;;;;6.33;75.32;99313.55;107390;1254;67634;-37
2024/03/30 02:16:58;;;;;;;6.00;4.30;;;;;;;6.35;75.39;99311.16;107295;1258;71206;-37
2024/03/30 02:19:25;;;;;;;6.20;4.30;;;;;;;6.37;75.30;99310.48;107281;1257;61708;-37
2024/03/30 02:21:54;;;;;;;7.80;4.80;;;;;;;6.46;75.14;99312.70;107290;1259;61320;-37
2024/03/30 02:24:21;;;;;;;4.90;4.00;;;;;;;6.55;75.06;99315.38;107302;1260;74668;-37
2024/03/30 02:26:49;;;;;;;6.80;4.10;;;;;;;6.60;75.14;99310.30;107311;1258;67753;-37
2024/03/30 02:29:16;;;;;;;6.30;4.70;;;;;;;6.63;75.03;99307.95;107296;1255;72686;-37
2024/03/30 02:31:44;;;;;;;7.40;3.80;;;;;;;6.66;74.57;99308.33;107356;1254;61198;-37
2024/03/30 02:34:11;;;;;;;7.60;4.30;;;;;;;6.67;74.06;99308.61;107237;1260;61113;-37
2024/03/30 02:36:39;;;;;;;5.60;4.10;;;;;;;6.65;73.78;99309.08;107258;1255;73411;-37
2024/03/30 02:39:06;;;;;;;5.90;4.20;;;;;;;6.61;73.63;99307.17;107246;1257;68655;-37
2024/03/30 02:41:34;;;;;;;5.90;4.00;;;;;;;6.57;73.40;99306.75;107224;1257;72675;-37
2024/03/30 02:44:01;;;;;;;6.40;3.60;;;;;;;6.58;73.30;99308.09;107278;1255;61688;-37
2024/03/30 02:46:28;;;;;;;5.90;3.60;;;;;;;6.61;72.99;99308.27;107307;1256;60926;-37
2024/03/30 02:48:56;;;;;;;6.30;4.00;;;;;;;6.59;73.08;99309.04;107305;1256;73694;-37
2024/03/30 02:51:23;;;;;;;4.80;3.90;;;;;;;6.55;73.08;99311.14;105834;1259;1002995;-37
2024/03/30 02:53:50;;;;;;;6.80;3.80;;;;;;;6.52;72.93;99310.36;107220;1256;71899;-37
2024/03/30 02:56:18;;;;;;;6.00;4.00;;;;;;;6.48;72.59;99311.60;107347;1260;61119;-37
2024/03/30 02:58:46;;;;;;;7.50;5.00;;;;;;;6.41;72.73;99313.06;107346;1255;61503;-37
2024/03/30 03:01:13;;;;;;;7.10;4.60;;;;;;;6.35;73.05;99310.23;107322;1257;74625;-37
2024/03/30 03:03:40;;;;;;;11.50;4.90;;;;;;;6.36;73.25;99312.35;107192;1261;67684;-37
2024/03/30 03:06:08;;;;;;;7.40;4.40;;;;;;;6.40;73.15;99315.25;107322;1257;71381;-37
2024/03/30 03:08:36;;;;;;;6.20;4.40;;;;;;;6.40;73.44;99315.33;107317;1257;61122;-37
2024/03/30 03:11:04;;;;;;;6.20;4.50;;;;;;;6.38;73.51;99319.25;107323;1255;60974;-37
2024/03/30 03:13:31;;;;;;;8.10;4.40;;;;;;;6.34;73.50;99320.05;107269;1258;73385;-37
2024/03/30 03:16:05;;;;;;;6.70;4.80;;;;;;;6.33;73.53;99320.50;107274;1257;67722;-37
2024/03/30 03:18:32;;;;;;;7.70;4.90;;;;;;;6.32;73.70;99320.52;107308;1260;72719;-38
2024/03/30 03:21:00;;;;;;;7.10;5.20;;;;;;;6.30;73.82;99322.77;107247;1257;61221;-37
2024/03/30 03:23:30;;;;;;;6.00;4.60;;;;;;;6.36;74.09;99321.11;107320;1257;61141;-37
2024/03/30 03:25:58;;;;;;;9.70;5.50;;;;;;;6.42;74.14;99319.58;107284;1257;74671;-37
2024/03/30 03:28:26;;;;;;;6.40;5.20;;;;;;;6.42;74.32;99314.55;107286;1257;67601;-37
2024/03/30 03:30:53;;;;;;;8.50;5.70;;;;;;;6.40;74.57;99312.09;107237;1257;72686;-37
2024/03/30 03:33:20;;;;;;;7.80;5.60;;;;;;;6.38;74.75;99309.65;107239;1260;61698;-37
2024/03/30 03:35:48;;;;;;;8.90;6.10;;;;;;;6.38;74.78;99311.59;107238;1256;61269;-37
2024/03/30 03:38:15;;;;;;;6.90;5.10;;;;;;;6.38;75.04;99310.25;107298;1257;73365;-37
2024/03/30 03:40:43;;;;;;;8.60;5.10;;;;;;;6.47;74.91;99312.96;107285;1257;67921;-38
2024/03/30 03:43:10;;;;;;;7.10;4.90;;;;;;;6.55;74.73;99312.91;107271;1257;72699;-37
2024/03/30 03:45:44;;;;;;;9.40;5.00;;;;;;;6.55;74.71;99310.23;107258;1259;61194;-37
2024/03/30 03:48:11;;;;;;;7.50;4.60;;;;;;;6.52;75.03;99310.23;107342;1255;61117;-38
2024/03/30 03:50:39;;;;;;;7.90;5.00;;;;;;;6.51;74.93;99309.48;107345;1258;74626;-38
2024/03/30 03:53:07;;;;;;;7.10;4.90;;;;;;;6.49;75.13;99308.41;107292;1257;68891;-38
2024/03/30 03:55:36;;;;;;;7.40;4.70;;;;;;;6.48;74.95;99310.92;107273;1258;72702;-38
2024/03/30 03:58:03;;;;;;;5.80;4.40;;;;;;;6.54;74.82;99314.41;107314;1255;61218;-38
2024/03/30 04:00:31;;;;;;;6.00;4.60;;;;;;;6.64;74.75;99315.42;107322;1260;60470;-38
2024/03/30 04:02:59;;;;;;;7.90;4.90;;;;;;;6.68;74.73;99310.66;107241;1256;72086;-38
2024/03/30 04:05:26;;;;;;;6.10;4.80;;;;;;;6.72;74.83;99307.25;107195;1261;67556;-38
2024/03/30 04:07:54;;;;;;;6.70;4.60;;;;;;;6.75;74.67;99310.51;107185;1261;71382;-38
2024/03/30 04:10:21;;;;;;;7.70;5.40;;;;;;;6.77;74.54;99314.80;107300;1261;61173;-37
2024/03/30 04:12:48;;;;;;;6.70;4.80;;;;;;;6.78;74.44;99321.30;107271;1259;61126;-37
2024/03/30 04:15:16;;;;;;;6.40;4.60;;;;;;;6.85;74.34;99321.00;107229;1257;74626;-37
2024/03/30 04:17:44;;;;;;;6.60;4.70;;;;;;;6.94;74.10;99321.84;107192;1262;67579;-37
2024/03/30 04:20:11;;;;;;;6.40;4.70;;;;;;;6.97;74.12;99322.79;107185;1260;71390;-37
2024/03/30 04:22:38;;;;;;;8.30;5.30;;;;;;;7.01;74.16;99327.69;107242;1257;62040;-37
2024/03/30 04:25:07;;;;;;;7.10;4.70;;;;;;;7.04;73.89;99327.08;107197;1256;61243;-37
2024/03/30 04:27:34;;;;;;;6.60;4.90;;;;;;;7.07;73.79;99330.85;107219;1256;74650;-37
2024/03/30 04:30:02;;;;;;;6.00;4.80;;;;;;;7.09;73.73;99329.39;107202;1261;66597;-37
2024/03/30 04:32:29;;;;;;;5.40;4.60;;;;;;;7.11;73.48;99328.87;107306;1262;70088;-37
2024/03/30 04:34:57;;;;;;;5.20;4.00;;;;;;;7.18;73.22;99330.02;107200;1261;61895;-37
2024/03/30 04:37:24;;;;;;;5.90;4.20;;;;;;;7.28;72.99;99336.02;107286;1260;61280;-37
2024/03/30 04:39:52;;;;;;;6.50;4.00;;;;;;;7.32;72.88;99336.83;107193;1261;73382;-37
2024/03/30 04:42:19;;;;;;;6.00;4.30;;;;;;;7.35;72.84;99334.22;107191;1262;66295;-37
2024/03/30 04:44:47;;;;;;;5.30;4.20;;;;;;;7.40;72.73;99336.91;107200;1260;71421;-37
2024/03/30 04:47:15;;;;;;;6.20;4.40;;;;;;;7.46;72.69;99337.25;107253;1258;61254;-37
2024/03/30 04:49:42;;;;;;;5.10;3.80;;;;;;;7.51;72.76;99341.02;107197;1262;59328;-37
2024/03/30 04:52:09;;;;;;;6.60;4.00;;;;;;;7.55;72.66;99346.64;107179;1256;73281;-37
2024/03/30 04:54:37;;;;;;;6.90;4.10;;;;;;;7.67;72.52;99348.20;107242;1258;66420;-37
2024/03/30 04:57:05;;;;;;;4.70;3.70;;;;;;;7.79;71.94;99348.67;107104;1257;73179;-37
2024/03/30 04:59:32;;;;;;;5.80;3.80;;;;;;;7.84;71.54;99352.91;107107;1257;60199;-37
2024/03/30 05:01:59;;;;;;;9.10;3.90;;;;;;;7.87;71.48;99354.29;107152;1258;60486;-37
2024/03/30 05:04:27;;;;;;;6.70;3.60;;;;;;;7.90;71.64;99351.67;107233;1257;74058;-37
2024/03/30 05:06:54;;;;;;;6.00;4.30;;;;;;;7.95;71.51;99353.08;107210;1258;67450;-37
2024/03/30 05:09:22;;;;;;;8.70;4.30;;;;;;;7.98;71.08;99354.72;107192;1262;71383;-37
2024/03/30 05:11:49;;;;;;;6.00;4.20;;;;;;;7.99;70.95;99356.51;107145;1260;59986;-37
2024/03/30 05:14:16;;;;;;;5.40;3.80;;;;;;;7.93;71.04;99348.38;107172;1257;60021;-37
2024/03/30 05:16:44;;;;;;;5.80;3.60;;;;;;;8.06;70.69;99364.59;107207;1260;72468;-37
2024/03/30 05:20:48;;;;;;;4.90;3.60;;;;;;;8.15;70.48;99364.91;107227;1257;67576;-37
2024/03/30 05:21:59;;;;;;;7.20;4.50;;;;;;;8.21;70.61;99364.15;107233;1258;72750;-37
2024/03/30 05:24:27;;;;;;;7.90;4.00;;;;;;;8.25;70.50;99367.84;107237;1258;61347;-37
2024/03/30 05:26:54;;;;;;;5.70;4.10;;;;;;;8.31;70.61;99367.60;107278;1262;61117;-37
2024/03/30 05:29:21;;;;;;;6.40;4.40;;;;;;;8.38;70.57;99366.13;107225;1257;74643;-37
2024/03/30 05:31:49;;;;;;;5.10;4.10;;;;;;;8.46;70.15;99367.55;107216;1258;67928;-37
2024/03/30 05:34:16;;;;;;;5.50;4.30;;;;;;;8.50;70.05;99370.15;107229;1261;72710;-37
2024/03/30 05:36:43;;;;;;;9.50;4.30;;;;;;;8.56;70.01;99374.94;107250;1257;61125;-37
2024/03/30 05:39:11;;;;;;;4.20;3.70;;;;;;;8.65;69.67;99379.30;107132;1257;61266;-37
2024/03/30 05:41:39;;;;;;;6.30;3.60;;;;;;;8.78;69.52;99381.40;107240;1258;74649;-37
2024/03/30 05:44:07;;;;;;;7.60;3.70;;;;;;;8.86;69.26;99384.38;107245;1258;67464;-38
2024/03/30 05:46:34;;;;;;;4.20;3.50;;;;;;;8.92;69.30;99382.70;107118;1257;71436;-38
2024/03/30 05:49:02;;;;;;;4.50;3.60;;;;;;;9.00;69.34;99385.52;107241;1258;61238;-38
2024/03/30 05:51:29;;;;;;;5.50;3.80;;;;;;;9.06;68.58;99386.29;107251;1258;61103;-38
2024/03/30 05:53:57;;;;;;;6.10;3.70;;;;;;;9.10;68.53;99386.09;107208;1257;73426;-38
2024/03/30 05:56:25;;;;;;;7.10;4.10;;;;;;;9.14;68.23;99389.44;107292;1260;67909;-38
2024/03/30 05:58:53;;;;;;;5.80;4.20;;;;;;;9.17;68.03;99393.84;107209;1258;72705;-38
2024/03/30 06:01:21;;;;;;;5.90;3.90;;;;;;;9.22;68.07;99397.27;107119;1258;61554;-38
2024/03/30 06:03:48;;;;;;;6.10;3.60;;;;;;;9.33;67.77;99388.27;107133;1261;60109;-38
2024/03/30 06:06:16;;;;;;;4.90;3.80;;;;;;;9.47;67.05;99383.73;107059;1263;74679;-38
2024/03/30 06:08:43;;;;;;;4.90;3.40;;;;;;;9.52;66.24;99380.84;107210;1257;66271;-38
2024/03/30 06:11:11;;;;;;;5.10;4.00;;;;;;;9.56;65.73;99384.78;107209;1257;71391;-38
2024/03/30 06:13:38;;;;;;;6.40;3.70;;;;;;;9.58;65.48;99383.52;107224;1257;61200;-38
2024/03/30 06:16:06;;;;;;;4.10;3.60;;;;;;;9.60;65.10;99388.21;107221;1261;61163;-38
2024/03/30 06:18:34;;;;;;;5.40;3.70;;;;;;;9.61;65.09;99386.98;107295;1257;74657;-38
2024/03/30 06:21:01;;;;;;;5.20;4.10;;;;;;;9.60;64.66;99383.73;107243;1258;67316;-38
2024/03/30 06:23:28;;;;;;;5.60;4.00;;;;;;;9.59;64.94;99381.30;107263;1257;72722;-38
2024/03/30 06:25:56;;;;;;;7.60;3.90;;;;;;;9.59;65.23;99376.52;107155;1261;60035;-38
2024/03/30 06:28:23;;;;;;;6.90;4.10;;;;;;;9.59;64.87;99375.38;107207;1258;61334;-38
2024/03/30 06:30:50;;;;;;;4.70;4.00;;;;;;;9.59;64.98;99374.28;107307;1258;74647;-38
2024/03/30 06:33:18;;;;;;;5.80;3.80;;;;;;;9.60;64.98;99373.22;107221;1260;67640;-38
2024/03/30 06:35:55;;;;;;;7.50;3.70;;;;;;;9.68;64.60;99370.76;107224;1261;71551;-38
2024/03/30 06:38:22;;;;;;;5.40;3.90;;;;;;;9.78;64.63;99373.55;107196;1257;61309;-38
2024/03/30 06:43:42;;;;;;;6.90;4.40;;;;;;;9.93;64.78;99369.98;107260;1260;73363;-38
2024/03/30 06:46:09;;;;;;;7.20;4.40;;;;;;;10.03;64.73;99371.30;107255;1257;66772;-38
2024/03/30 06:48:37;;;;;;;6.30;4.40;;;;;;;10.13;64.76;99367.33;107245;1258;71430;-38
2024/03/30 06:51:05;;;;;;;7.50;4.50;;;;;;;10.22;64.64;99362.02;107282;1260;61057;-38
2024/03/30 06:53:32;;;;;;;5.80;4.00;;;;;;;10.28;64.39;99359.07;107243;1257;59304;-38
2024/03/30 06:56:00;;;;;;;7.40;4.50;;;;;;;10.34;64.36;99361.50;107210;1257;73373;-38
2024/03/30 06:58:27;;;;;;;6.30;4.10;;;;;;;10.39;64.03;99357.81;107171;1257;66440;-38
2024/03/30 07:00:54;;;;;;;6.40;4.80;;;;;;;10.46;64.21;99358.70;107068;1257;72742;-38
2024/03/30 07:03:22;;;;;;;6.50;4.60;;;;;;;10.53;63.54;99357.15;107182;1257;61178;-38
2024/03/30 07:05:49;;;;;;;7.10;4.50;;;;;;;10.57;63.28;99354.66;107195;1257;60049;-38
2024/03/30 07:08:17;;;;;;;5.90;3.90;;;;;;;10.67;63.68;99350.84;107211;1257;73394;-38
2024/03/30 07:10:44;;;;;;;5.90;3.80;;;;;;;10.79;63.30;99352.83;107248;1257;66838;-38
2024/03/30 07:13:12;;;;;;;7.30;4.00;;;;;;;10.98;62.64;99352.06;107229;1257;72720;-38
2024/03/30 07:15:39;;;;;;;5.90;3.50;;;;;;;11.18;62.30;99352.17;107214;1257;61076;-38
2024/03/30 07:18:07;;;;;;;7.60;3.90;;;;;;;11.35;61.65;99348.86;107230;1257;60506;-38
2024/03/30 07:20:34;;;;;;;5.30;3.60;;;;;;;11.51;61.58;99348.17;107129;1256;73433;-38
2024/03/30 07:23:01;;;;;;;4.70;3.60;;;;;;;11.69;60.20;99348.45;107187;1258;67912;-38
2024/03/30 07:25:29;;;;;;;5.10;3.40;;;;;;;11.85;58.71;99346.05;107197;1257;72731;-38
2024/03/30 07:27:56;;;;;;;4.50;3.10;;;;;;;11.97;58.24;99337.44;107233;1258;61148;-38
2024/03/30 07:30:25;;;;;;;5.80;3.60;;;;;;;12.08;57.92;99333.45;107288;1257;61420;-38
2024/03/30 07:32:52;;;;;;;5.20;3.30;;;;;;;12.20;57.92;99327.32;107233;1257;73712;-38
2024/03/30 07:35:20;;;;;;;5.00;3.30;;;;;;;12.36;56.70;99328.58;107293;1260;67661;-38
2024/03/30 07:37:47;;;;;;;4.90;3.00;;;;;;;12.51;55.81;99322.84;107177;1257;72734;-38
2024/03/30 07:40:15;;;;;;;4.10;3.00;;;;;;;12.68;55.55;99324.80;107258;1260;61250;-38
2024/03/30 07:42:42;;;;;;;4.60;2.70;;;;;;;12.83;54.38;99321.38;107236;1257;60499;-38
2024/03/30 07:45:09;;;;;;;5.60;3.10;;;;;;;12.98;54.71;99319.09;107145;1260;74749;-39
2024/03/30 07:47:38;;;;;;;4.20;2.60;;;;;;;13.16;55.02;99319.81;107107;1257;66326;-39
2024/03/30 07:50:05;;;;;;;4.00;2.20;;;;;;;13.37;54.16;99318.18;107223;1260;71451;-39
2024/03/30 07:52:33;;;;;;;5.40;2.60;;;;;;;13.61;54.17;99319.17;107168;1257;61334;-39
2024/03/30 07:55:00;;;;;;;5.30;2.40;;;;;;;13.83;54.17;99320.86;107141;1256;61465;-38
2024/03/30 07:57:27;;;;;;;2.80;2.20;;;;;;;14.08;54.39;99325.73;107220;1258;74612;-38
2024/03/30 07:59:55;;;;;;;3.30;2.10;;;;;;;14.32;53.49;99325.21;107213;1260;66752;-39
2024/03/30 08:02:22;;;;;;;4.40;1.90;;;;;;;14.54;51.74;99327.16;107236;1257;72681;-39
2024/03/30 08:04:50;;;;;;;4.20;2.30;;;;;;;14.71;51.75;99326.80;107150;1257;61269;-38
2024/03/30 08:07:18;;;;;;;3.80;2.20;;;;;;;14.89;51.19;99326.74;107273;1260;61074;-38
2024/03/30 08:09:45;;;;;;;3.70;2.00;;;;;;;15.03;50.48;99319.19;107172;1257;73879;-38
2024/03/30 08:12:13;;;;;;;2.90;2.20;;;;;;;15.13;50.55;99317.55;107195;1257;67593;-39
2024/03/30 08:14:40;;;;;;;3.30;2.30;;;;;;;15.26;49.94;99313.73;107135;1258;72718;-38
2024/03/30 08:17:07;;;;;;;3.20;2.60;;;;;;;15.35;49.56;99313.09;107193;1256;61280;-38
2024/03/30 08:19:35;;;;;;;3.50;2.60;;;;;;;15.47;49.43;99319.48;107226;1257;61242;-39
2024/03/30 08:22:03;;;;;;;4.40;2.70;;;;;;;15.60;49.26;99315.48;107300;1258;74635;-38
2024/03/30 08:24:31;;;;;;;3.50;2.40;;;;;;;15.70;49.39;99316.11;107282;1257;66264;-39
2024/03/30 08:26:58;;;;;;;4.10;2.20;;;;;;;15.73;49.44;99310.79;107202;1257;71446;-39
2024/03/30 08:29:26;;;;;;;3.80;2.60;;;;;;;15.72;49.32;99320.16;107204;1257;61192;-39
2024/03/30 08:31:54;;;;;;;4.60;2.20;;;;;;;15.66;49.39;99320.17;107171;1257;61341;-39
2024/03/30 08:34:22;;;;;;;4.30;2.20;;;;;;;15.57;49.42;99315.50;107187;1257;73431;-38
2024/03/30 08:36:49;;;;;;;5.10;2.00;;;;;;;15.50;49.41;99309.73;107135;1257;67678;-39
2024/03/30 08:39:17;;;;;;;6.50;2.40;;;;;;;15.43;49.78;99312.76;107220;1257;72046;-39
2024/03/30 08:41:44;;;;;;;2.40;1.90;;;;;;;15.37;50.07;99311.21;107245;1258;61117;-39
2024/03/30 08:44:11;;;;;;;3.50;2.20;;;;;;;15.34;49.70;99310.44;107258;1256;60477;-39
2024/03/30 08:46:39;;;;;;;2.90;1.80;;;;;;;15.34;49.80;99305.04;107222;1256;75554;-39
2024/03/30 08:49:08;;;;;;;4.00;2.40;;;;;;;15.39;50.41;99304.58;107246;1257;66283;-39
2024/03/30 08:51:36;;;;;;;3.40;2.20;;;;;;;15.45;50.35;99288.42;107204;1257;72747;-39
2024/03/30 08:54:04;;;;;;;3.50;2.00;;;;;;;15.72;50.10;99299.61;107176;1258;60371;-39
2024/03/30 08:56:33;;;;;;;4.90;2.30;;;;;;;15.94;48.78;99301.34;107033;1260;206626;-39
2024/03/30 09:00:43;;;;;;;4.40;2.30;;;;;;;16.16;48.46;99297.58;104255;1291;600457;-38
2024/03/30 09:03:11;;;;;;;4.70;2.40;;;;;;;16.24;48.81;99295.27;106685;1266;60223;-38
2024/03/30 09:05:38;;;;;;;3.60;2.10;;;;;;;16.42;49.00;99286.48;106699;1266;60389;-38
2024/03/30 09:08:06;;;;;;;3.90;2.10;;;;;;;16.66;49.02;99273.94;106746;1266;73195;-38
2024/03/30 09:10:35;;;;;;;4.10;2.10;;;;;;;17.08;48.00;99287.29;106679;1267;67598;-38
2024/03/30 09:13:03;;;;;;;3.60;2.10;;;;;;;17.43;47.13;99284.86;106678;1266;71486;-38
2024/03/30 09:15:30;;;;;;;3.60;2.10;;;;;;;17.70;46.06;99280.06;106713;1263;207648;-38
2024/03/30 09:18:00;;;;;;;3.30;1.90;;;;;;;17.93;44.50;99283.70;106990;1266;59514;-37
2024/03/30 09:20:28;;;;;;;4.20;2.00;;;;;;;18.02;43.68;99280.70;107028;1260;73431;-37
2024/03/30 09:22:55;;;;;;;4.00;1.80;;;;;;;18.11;44.52;99278.14;107022;1260;66764;-37
2024/03/30 09:25:23;;;;;;;2.40;1.50;;;;;;;18.24;44.54;99279.78;107007;1260;72692;-37
2024/03/30 09:27:50;;;;;;;4.50;2.00;;;;;;;18.34;44.07;99272.20;107000;1265;60342;-38
2024/03/30 09:30:18;;;;;;;4.90;2.00;;;;;;;18.38;43.48;99270.96;106998;1260;60516;-38
2024/03/30 09:32:47;;;;;;;4.20;1.70;;;;;;;18.37;43.86;99270.59;106957;1260;73917;-37
2024/03/30 09:35:14;;;;;;;4.80;2.00;;;;;;;18.35;43.35;99276.58;107030;1260;68347;-37
2024/03/30 09:37:42;;;;;;;2.80;1.90;;;;;;;18.31;44.05;99278.03;106946;1260;73286;-37
2024/03/30 09:40:11;;;;;;;3.10;1.80;;;;;;;18.33;44.20;99277.62;107040;1260;60312;-37
2024/03/30 09:42:43;;;;;;;6.30;1.90;;;;;;;18.38;43.53;99277.55;106996;1260;60619;-37
2024/03/30 09:45:10;;;;;;;4.10;1.60;;;;;;;18.44;44.31;99269.08;107004;1260;74017;-37
2024/03/30 09:47:42;;;;;;;2.60;1.60;;;;;;;18.60;44.17;99268.47;107021;1260;67906;-38
2024/03/30 09:50:10;;;;;;;2.90;1.70;;;;;;;18.81;43.23;99270.58;107045;1265;72793;-37
2024/03/30 09:52:39;;;;;;;2.50;1.80;;;;;;;19.01;42.65;99265.23;106963;1260;62258;-37
2024/03/30 09:55:11;;;;;;;2.60;1.50;;;;;;;19.23;42.35;99258.17;106999;1260;60395;-38
2024/03/30 09:57:40;;;;;;;2.20;1.60;;;;;;;19.37;41.99;99250.62;107004;1260;74822;-38
2024/03/30 10:00:13;;;;;;;2.60;1.90;;;;;;;19.54;42.46;99245.78;106976;1260;68414;-38
2024/03/30 10:02:40;;;;;;;4.90;1.80;;;;;;;19.76;42.18;99247.05;106956;1260;72141;-38
2024/03/30 10:05:09;;;;;;;2.80;1.80;;;;;;;20.01;41.06;99252.92;106853;1260;62201;-38
2024/03/30 10:08:00;;;;;;;2.70;1.90;;;;;;;20.16;40.30;99246.15;106936;1260;60374;-38
2024/03/30 10:10:29;;;;;;;4.40;2.10;;;;;;;20.21;40.36;99247.77;106927;1260;74230;-38
2024/03/30 10:13:03;;;;;;;4.20;1.90;;;;;;;20.28;40.37;99244.57;106789;1260;67079;-37
2024/03/30 10:15:39;;;;;;;6.20;2.00;;;;;;;20.34;40.29;99243.56;106932;1263;74948;-37
2024/03/30 10:18:06;;;;;;;4.50;1.90;;;;;;;20.37;40.14;99242.16;106833;1262;60425;-38
2024/03/30 10:20:34;;;;;;;2.00;1.60;;;;;;;20.31;39.43;99241.12;106860;1263;60571;-37
2024/03/30 10:23:02;;;;;;;5.20;1.90;;;;;;;20.20;39.97;99237.95;106978;1261;72650;-38
2024/03/30 10:25:30;;;;;;;2.60;1.70;;;;;;;20.15;39.86;99235.71;106819;1266;67814;-37
2024/03/30 10:27:57;;;;;;;3.90;1.90;;;;;;;20.15;40.48;99237.44;106823;1266;72749;-37
2024/03/30 10:30:25;;;;;;;2.50;1.70;;;;;;;20.19;40.86;99236.24;106787;1263;60440;-37
2024/03/30 10:32:54;;;;;;;2.60;1.80;;;;;;;20.27;40.69;99232.07;106883;1262;62124;-38
2024/03/30 10:35:21;;;;;;;3.70;1.90;;;;;;;20.33;40.73;99229.05;106877;1263;73259;-38
2024/03/30 10:37:49;;;;;;;3.90;1.90;;;;;;;20.39;40.55;99236.70;106835;1263;67353;-38
2024/03/30 10:40:17;;;;;;;3.40;2.00;;;;;;;20.34;39.43;99230.42;106848;1263;72787;-37
2024/03/30 10:42:44;;;;;;;4.10;2.00;;;;;;;20.23;40.36;99222.48;106862;1262;60418;-38
2024/03/30 10:45:12;;;;;;;3.90;1.80;;;;;;;20.14;40.17;99220.80;106827;1263;60470;-37
2024/03/30 10:47:39;;;;;;;3.80;2.10;;;;;;;20.04;41.23;99219.90;106771;1266;72667;-38
2024/03/30 10:50:07;;;;;;;4.10;1.80;;;;;;;19.97;40.77;99215.83;106760;1266;67889;-38
2024/03/30 10:52:37;;;;;;;4.30;1.80;;;;;;;19.94;40.96;99214.21;106795;1263;71483;-38
2024/03/30 10:55:05;;;;;;;4.80;1.90;;;;;;;19.92;41.20;99214.59;106837;1263;60559;-38
2024/03/30 10:57:33;;;;;;;5.70;2.10;;;;;;;19.94;41.27;99217.14;106854;1266;61000;-38
2024/03/30 11:00:03;;;;;;;3.20;1.60;;;;;;;20.01;41.25;99211.09;106792;1263;73899;-39
2024/03/30 11:02:30;;;;;;;5.50;1.80;;;;;;;20.18;41.33;99207.16;106759;1263;69797;-39
2024/03/30 11:04:58;;;;;;;4.40;2.10;;;;;;;20.37;39.49;99205.75;106861;1263;71487;-39
2024/03/30 11:07:25;;;;;;;4.40;2.10;;;;;;;20.55;39.68;99199.73;106821;1263;60392;-39
2024/03/30 11:09:53;;;;;;;3.30;1.80;;;;;;;20.80;40.07;99200.14;106826;1263;61191;-39
2024/03/30 11:12:20;;;;;;;3.10;1.80;;;;;;;21.09;39.37;99200.13;106863;1263;74186;-39
2024/03/30 11:14:48;;;;;;;4.00;2.10;;;;;;;21.22;38.58;99201.77;106842;1261;66969;-39
2024/03/30 11:17:18;;;;;;;2.80;1.80;;;;;;;21.28;39.08;99201.44;106855;1262;74882;-39
2024/03/30 11:20:17;;;;;;;2.30;1.70;;;;;;;21.38;39.25;99193.27;106865;1263;60437;-39
2024/03/30 11:22:57;;;;;;;3.20;1.90;;;;;;;21.58;38.15;99197.36;106809;1260;60309;-39
2024/03/30 11:25:27;;;;;;;;;;;;;;;21.61;37.93;99199.33;106885;1260;76015;-39
2024/03/30 11:28:01;;;;;;;4.90;2.00;;;;;;;21.53;38.48;99197.77;106864;1266;67683;-39
2024/03/30 11:30:45;;;;;;;3.40;2.20;;;;;;;21.39;38.23;99203.36;106837;1262;72692;-39
2024/03/30 11:33:33;;;;;;;3.70;1.90;;;;;;;21.20;39.02;99191.95;106854;1262;60423;-39
2024/03/30 11:36:07;;;;;;;4.50;2.10;;;;;;;21.00;38.34;99188.27;107114;1257;60204;-38
2024/03/30 11:38:34;;;;;;;6.80;2.30;;;;;;;20.85;38.86;99185.77;107070;1257;76071;-38